VHHH/HKG METAR and TAF weather

Enter ICAO airport designator
Station Type Date Time Source
VHHH METAR 2020/01/26 01:00 UTC NOAA

VHHH 260100Z 36014KT 9999 -SHRA FEW008 SCT028 14/13 Q1018 NOSIG


Station Type Date Time Source
VHHH Decoded METAR 2020/01/26 01:00 UTC NOAA

Hong Kong Inter-National Airport, Hong Kong (VHHH) 22-20N 114-11E 24M
Jan 25, 2020 - 08:00 PM EST / 2020.01.26 0100 UTC
Wind: from the N (360 degrees) at 16 MPH (14 KT):0
Visibility: greater than 7 mile(s):0
Sky conditions: partly cloudy
Weather: light rain showers
Temperature: 57 F (14 C)
Dew Point: 55 F (13 C)
Relative Humidity: 93%
Pressure (altimeter): 30.06 in. Hg (1018 hPa)
ob: VHHH 260100Z 36014KT 9999 -SHRA FEW008 SCT028 14/13 Q1018 NOSIG
cycle: 1

Station Type Date Time Source
VHHH TAF 2020/01/25 18:21 UTC NOAA

TAF TAF VHHH 251700Z 2518/2624 36015KT 7000 FEW015 SCT035 TX18/2518Z TN14/2618Z TN12/2623Z
TEMPO 2518/2603 VRB15G25KT 3500 -TSRA SHRA FEW010CB SCT020
TEMPO 2603/2609 4000 RA

Example: see airport list